createdAt,value
2023-11-08T00:02:25.419Z,100474.84
2023-11-08T00:04:52.264Z,100473.13
2023-11-08T00:07:19.602Z,100473.97
2023-11-08T00:09:46.505Z,100470.44
2023-11-08T00:12:15.792Z,100475.66
2023-11-08T00:14:44.033Z,100475.66
2023-11-08T00:17:10.836Z,100478.28
2023-11-08T00:19:37.612Z,100470.50
2023-11-08T00:22:04.459Z,100477.41
2023-11-08T00:24:31.245Z,100480.94
2023-11-08T00:26:58.056Z,100478.34
2023-11-08T00:29:24.839Z,100480.09
2023-11-08T00:31:52.251Z,100483.53
2023-11-08T00:34:21.216Z,100491.38
2023-11-08T00:36:50.177Z,100489.66
2023-11-08T00:39:19.808Z,100492.22
2023-11-08T00:41:47.062Z,100481.78
2023-11-08T00:44:14.338Z,100487.03
2023-11-08T00:46:41.376Z,100489.59
2023-11-08T00:49:08.316Z,100483.56
2023-11-08T00:51:35.137Z,100490.53
2023-11-08T00:54:02.071Z,100483.56
2023-11-08T00:56:29.051Z,100489.69
2023-11-08T00:58:56.090Z,100486.16
2023-11-08T01:01:24.043Z,100483.53
2023-11-08T01:03:52.008Z,100482.66
2023-11-08T01:06:18.993Z,100482.66
2023-11-08T01:08:45.840Z,100489.63
2023-11-08T01:11:12.778Z,100494.81
2023-11-08T01:13:39.482Z,100491.25
2023-11-08T01:16:09.458Z,100495.50
2023-11-08T01:18:36.515Z,100498.09
2023-11-08T01:21:03.909Z,100504.13
2023-11-08T01:23:30.950Z,100490.19
2023-11-08T01:25:57.784Z,100492.78
2023-11-08T01:28:25.216Z,100496.22
2023-11-08T01:30:52.484Z,100495.38
2023-11-08T01:33:19.470Z,100497.97
2023-11-08T01:35:46.359Z,100489.22
2023-11-08T01:38:13.853Z,100497.78
2023-11-08T01:40:44.416Z,100498.41
2023-11-08T01:43:30.524Z,100516.38
2023-11-08T01:46:07.967Z,100510.16
2023-11-08T01:48:36.839Z,100503.19
2023-11-08T01:51:04.996Z,100500.59
2023-11-08T01:53:33.254Z,100497.94
2023-11-08T01:56:00.244Z,100499.72
2023-11-08T01:58:27.077Z,100502.31
2023-11-08T02:00:55.703Z,100504.97
2023-11-08T02:03:24.753Z,100499.81
2023-11-08T02:05:52.169Z,100504.16
2023-11-08T02:08:19.007Z,100498.09
2023-11-08T02:10:46.151Z,100500.75
2023-11-08T02:13:13.620Z,100500.69
2023-11-08T02:15:44.242Z,100493.78
2023-11-08T02:18:12.151Z,100500.75
2023-11-08T02:20:39.207Z,100498.16
2023-11-08T02:23:06.103Z,100512.84
2023-11-08T02:25:32.958Z,100505.94
2023-11-08T02:28:00.068Z,100508.59
2023-11-08T02:30:27.119Z,100511.16
2023-11-08T02:32:54.384Z,100516.41
2023-11-08T02:35:21.850Z,100510.41
2023-11-08T02:37:49.726Z,100513.03
2023-11-08T02:40:17.201Z,100521.72
2023-11-08T02:42:45.520Z,100505.28
2023-11-08T02:45:13.146Z,100503.50
2023-11-08T02:47:40.601Z,100506.94
2023-11-08T02:50:08.780Z,100502.59
2023-11-08T02:52:35.777Z,100506.94
2023-11-08T02:55:03.058Z,100510.44
2023-11-08T02:57:29.900Z,100505.22
2023-11-08T02:59:56.905Z,100509.63
2023-11-08T03:02:23.884Z,100512.19
2023-11-08T03:04:50.747Z,100511.28
2023-11-08T03:07:17.514Z,100510.47
2023-11-08T03:09:44.526Z,100518.28
2023-11-08T03:12:11.310Z,100514.81
2023-11-08T03:14:38.157Z,100516.63
2023-11-08T03:17:04.971Z,100521.81
2023-11-08T03:19:32.362Z,100520.06
2023-11-08T03:22:01.527Z,100527.88
2023-11-08T03:24:28.288Z,100524.44
2023-11-08T03:26:55.107Z,100530.50
2023-11-08T03:29:21.971Z,100533.09
2023-11-08T03:31:48.739Z,100535.75
2023-11-08T03:34:15.740Z,100531.38
2023-11-08T03:36:44.106Z,100534.84
2023-11-08T03:39:11.361Z,100540.03
2023-11-08T03:41:38.264Z,100547.88
2023-11-08T03:44:06.920Z,100534.88
2023-11-08T03:46:33.768Z,100543.53
2023-11-08T03:49:00.666Z,100537.47
2023-11-08T03:51:28.652Z,100553.97
2023-11-08T03:53:56.064Z,100545.31
2023-11-08T03:56:23.129Z,100539.25
2023-11-08T03:58:55.812Z,100540.19
2023-11-08T04:01:22.710Z,100542.81
2023-11-08T04:03:49.733Z,100548.03
2023-11-08T04:06:16.649Z,100538.47
2023-11-08T04:08:43.397Z,100553.25
2023-11-08T04:11:10.165Z,100561.06
2023-11-08T04:13:36.918Z,100558.47
2023-11-08T04:16:04.680Z,100563.69
2023-11-08T04:18:32.045Z,100567.19
2023-11-08T04:20:58.885Z,100570.66
2023-11-08T04:23:25.734Z,100561.13
2023-11-08T04:25:52.602Z,100562.03
2023-11-08T04:28:19.386Z,100561.13
2023-11-08T04:30:47.128Z,100569.00
2023-11-08T04:33:13.953Z,100564.66
2023-11-08T04:35:40.926Z,100558.63
2023-11-08T04:38:08.494Z,100563.84
2023-11-08T04:40:35.341Z,100568.22
2023-11-08T04:43:02.121Z,100567.31
2023-11-08T04:45:28.897Z,100569.03
2023-11-08T04:47:55.995Z,100565.53
2023-11-08T04:50:23.011Z,100569.00
2023-11-08T04:52:49.852Z,100571.63
2023-11-08T04:55:16.692Z,100573.34
2023-11-08T04:57:43.529Z,100579.47
2023-11-08T05:00:11.821Z,100577.72
2023-11-08T05:02:39.569Z,100582.06
2023-11-08T05:05:07.162Z,100579.47
2023-11-08T05:07:34.041Z,100589.03
2023-11-08T05:10:00.969Z,100588.13
2023-11-08T05:12:27.873Z,100598.56
2023-11-08T05:14:56.027Z,100603.78
2023-11-08T05:17:22.868Z,100602.91
2023-11-08T05:19:49.648Z,100596.84
2023-11-08T05:22:16.566Z,100595.94
2023-11-08T05:24:45.130Z,100592.50
2023-11-08T05:27:17.298Z,100591.63
2023-11-08T05:29:44.524Z,100595.97
2023-11-08T05:32:11.286Z,100602.94
2023-11-08T05:34:38.860Z,100591.66
2023-11-08T05:37:05.983Z,100589.06
2023-11-08T05:39:33.009Z,100598.63
2023-11-08T05:41:59.854Z,100589.94
2023-11-08T05:44:26.629Z,100592.56
2023-11-08T05:46:53.427Z,100593.44
2023-11-08T05:49:20.678Z,100593.47
2023-11-08T05:51:47.514Z,100597.84
2023-11-08T05:54:14.632Z,100586.53
2023-11-08T05:56:42.979Z,100598.66
2023-11-08T05:59:09.728Z,100597.81
2023-11-08T06:01:45.678Z,100602.13
2023-11-08T06:04:14.167Z,100594.31
2023-11-08T06:06:47.269Z,100595.25
2023-11-08T06:12:14.784Z,100600.47
2023-11-08T08:38:44.857Z,100652.41
2023-11-08T08:41:12.749Z,100657.66
2023-11-08T08:43:41.043Z,100653.28
2023-11-08T08:49:26.739Z,100649.84
2023-11-08T08:51:54.374Z,100649.84
2023-11-08T08:54:31.092Z,100657.66
2023-11-08T08:56:59.694Z,100662.03
2023-11-08T08:59:31.475Z,100663.75
2023-11-08T09:01:58.396Z,100664.66
2023-11-08T09:04:25.801Z,100659.44
2023-11-08T09:06:53.891Z,100658.56
2023-11-08T09:09:20.846Z,100658.56
2023-11-08T09:11:47.641Z,100660.28
2023-11-08T09:14:16.666Z,100662.06
2023-11-08T09:16:43.518Z,100669.91
2023-11-08T09:19:11.478Z,100669.03
2023-11-08T09:21:43.479Z,100677.75
2023-11-08T09:24:11.055Z,100669.91
2023-11-08T09:26:38.048Z,100676.84
2023-11-08T09:29:05.744Z,100676.00
2023-11-08T09:31:34.295Z,100676.88
2023-11-08T09:34:06.068Z,100685.59
2023-11-08T09:36:33.200Z,100683.84
2023-11-08T09:39:01.644Z,100685.59
2023-11-08T09:41:29.190Z,100689.94
2023-11-08T09:43:56.223Z,100686.44
2023-11-08T09:46:23.564Z,100684.72
2023-11-08T09:48:51.198Z,100688.19
2023-11-08T09:51:21.178Z,100680.41
2023-11-08T09:53:47.956Z,100688.25
2023-11-08T09:56:14.988Z,100682.16
2023-11-08T09:58:49.294Z,100679.53
2023-11-08T10:01:17.606Z,100677.81
2023-11-08T10:03:45.761Z,100671.72
2023-11-08T10:06:12.987Z,100668.22
2023-11-08T10:08:40.006Z,100663.91
2023-11-08T10:11:07.814Z,100662.16
2023-11-08T10:13:50.929Z,100655.16
2023-11-08T10:16:18.718Z,100659.53
2023-11-08T10:19:36.249Z,100649.09
2023-11-08T10:21:49.936Z,100646.47
2023-11-08T10:24:17.695Z,100641.25
2023-11-08T10:26:44.868Z,100637.75
2023-11-08T10:29:14.956Z,100628.16
2023-11-08T10:31:43.325Z,100631.66
2023-11-08T10:34:22.251Z,100632.50
2023-11-08T10:36:49.412Z,100630.78
2023-11-08T10:39:19.113Z,100637.72
2023-11-08T10:41:50.269Z,100629.00
2023-11-08T10:44:24.152Z,100622.88
2023-11-08T10:46:59.383Z,100621.97
2023-11-08T10:49:26.982Z,100612.38
2023-11-08T10:51:59.735Z,100601.00
2023-11-08T10:54:26.655Z,100602.69
2023-11-08T10:56:56.044Z,100596.56
2023-11-08T10:59:23.477Z,100589.53
2023-11-08T11:01:50.395Z,100592.91
2023-11-08T11:04:17.535Z,100584.16
2023-11-08T11:06:44.755Z,100581.19
2023-11-08T11:09:12.384Z,100583.13
2023-11-08T11:11:44.879Z,100585.03
2023-11-08T11:14:57.734Z,100585.09
2023-11-08T11:17:30.507Z,100584.25
2023-11-08T11:20:03.722Z,100595.66
2023-11-08T11:22:30.413Z,100593.94
2023-11-08T11:24:58.610Z,100595.63
2023-11-08T11:27:34.835Z,100592.13
2023-11-08T11:30:24.914Z,100595.56
2023-11-08T11:32:54.398Z,100585.13
2023-11-08T11:35:44.557Z,100586.00
2023-11-08T11:38:12.356Z,100593.88
2023-11-08T11:40:44.146Z,100585.13
2023-11-08T11:43:39.524Z,100586.88
2023-11-08T11:46:07.392Z,100578.19
2023-11-08T11:48:35.023Z,100582.56
2023-11-08T11:51:03.272Z,100573.00
2023-11-08T11:53:31.078Z,100571.22
2023-11-08T11:56:10.796Z,100570.38
2023-11-08T11:58:38.012Z,100566.81
2023-11-08T12:01:07.394Z,100564.13
2023-11-08T12:03:35.156Z,100554.53
2023-11-08T12:06:02.261Z,100553.63
2023-11-08T12:08:29.529Z,100549.19
2023-11-08T12:11:33.667Z,100543.97
2023-11-08T12:14:00.411Z,100534.38
2023-11-08T12:16:27.249Z,100522.19
2023-11-08T12:18:54.054Z,100525.66
2023-11-08T12:21:21.036Z,100525.69
2023-11-08T12:23:49.016Z,100534.41
2023-11-08T12:26:15.774Z,100518.75
2023-11-08T12:28:45.086Z,100531.84
2023-11-08T12:31:12.827Z,100531.84
2023-11-08T12:33:39.972Z,100521.41
2023-11-08T12:36:10.874Z,100522.25
2023-11-08T12:38:40.822Z,100522.25
2023-11-08T12:41:09.275Z,100510.84
2023-11-08T12:43:58.798Z,100512.63
2023-11-08T12:46:37.670Z,100506.50
2023-11-08T12:49:15.880Z,100504.66
2023-11-08T12:51:44.245Z,100509.03
2023-11-08T12:54:12.537Z,100496.78
2023-11-08T12:56:40.814Z,100485.19
2023-11-08T12:59:25.899Z,100484.91
2023-11-08T13:02:12.102Z,100484.03
2023-11-08T13:04:42.558Z,100472.75
2023-11-08T13:07:10.111Z,100472.00
2023-11-08T13:09:37.438Z,100470.72
2023-11-08T13:12:05.039Z,100470.69
2023-11-08T13:14:31.925Z,100476.84
2023-11-08T13:16:58.826Z,100467.03
2023-11-08T13:19:25.758Z,100462.78
2023-11-08T13:21:53.335Z,100456.97
2023-11-08T13:24:20.634Z,100452.63
2023-11-08T13:26:47.855Z,100444.88
2023-11-08T13:29:14.784Z,100430.41
2023-11-08T13:31:41.827Z,100424.75
2023-11-08T13:34:08.866Z,100424.00
2023-11-08T13:36:36.424Z,100428.78
2023-11-08T13:39:05.578Z,100426.94
2023-11-08T13:41:32.669Z,100422.19
2023-11-08T13:43:59.969Z,100421.69
2023-11-08T13:46:27.167Z,100429.78
2023-11-08T13:48:54.784Z,100434.25
2023-11-08T13:51:22.117Z,100441.22
2023-11-08T13:53:49.073Z,100431.78
2023-11-08T13:56:15.873Z,100434.81
2023-11-08T13:58:42.926Z,100431.47
2023-11-08T14:01:17.522Z,100435.13
2023-11-08T14:03:44.799Z,100422.84
2023-11-08T14:06:15.221Z,100427.25
2023-11-08T14:08:42.339Z,100421.09
2023-11-08T14:11:09.535Z,100429.00
2023-11-08T14:13:36.618Z,100410.22
2023-11-08T14:16:04.100Z,100405.69
2023-11-08T14:18:30.943Z,100406.88
2023-11-08T14:20:58.138Z,100408.59
2023-11-08T14:23:25.011Z,100412.25
2023-11-08T14:25:52.570Z,100409.72
2023-11-08T14:28:20.302Z,100414.13
2023-11-08T14:30:48.100Z,100403.06
2023-11-08T14:33:17.032Z,100401.72
2023-11-08T14:35:44.012Z,100402.06
2023-11-08T14:38:12.381Z,100390.63
2023-11-08T14:40:39.690Z,100398.75
2023-11-08T14:43:06.632Z,100399.22
2023-11-08T14:45:33.510Z,100389.44
2023-11-08T14:48:00.487Z,100388.69
2023-11-08T14:50:27.392Z,100385.41
2023-11-08T14:52:55.267Z,100389.47
2023-11-08T14:55:22.159Z,100382.72
2023-11-08T14:57:49.123Z,100376.75
2023-11-08T15:00:17.039Z,100377.06
2023-11-08T15:02:43.988Z,100384.03
2023-11-08T15:05:10.858Z,100378.94
2023-11-08T15:09:42.807Z,100376.72
2023-11-08T15:10:25.990Z,100372.41
2023-11-08T15:12:56.196Z,100379.50
2023-11-08T15:15:23.885Z,100372.75
2023-11-08T15:17:50.742Z,100376.25
2023-11-08T15:20:18.659Z,100367.59
2023-11-08T15:22:45.768Z,100359.78
2023-11-08T15:25:13.378Z,100353.78
2023-11-08T15:27:40.350Z,100345.38
2023-11-08T15:30:10.005Z,100345.38
2023-11-08T15:32:40.237Z,100340.22
2023-11-08T15:35:08.178Z,100340.34
2023-11-08T15:37:35.173Z,100340.44
2023-11-08T15:40:02.953Z,100330.16
2023-11-08T15:42:30.257Z,100319.66
2023-11-08T15:44:57.560Z,100327.56
2023-11-08T15:47:24.340Z,100325.91
2023-11-08T15:49:51.085Z,100321.63
2023-11-08T15:52:18.777Z,100320.88
2023-11-08T15:54:46.283Z,100320.97
2023-11-08T15:57:13.652Z,100323.56
2023-11-08T15:59:40.418Z,100329.69
2023-11-08T16:02:09.854Z,100320.19
2023-11-08T16:04:37.181Z,100316.81
2023-11-08T16:07:04.749Z,100318.47
2023-11-08T16:09:32.711Z,100317.72
2023-11-08T16:12:00.389Z,100312.53
2023-11-08T16:14:27.295Z,100305.56
2023-11-08T16:16:54.262Z,100300.34
2023-11-08T16:19:21.159Z,100305.59
2023-11-08T16:21:50.115Z,100306.50
2023-11-08T16:24:18.107Z,100303.03
2023-11-08T16:26:45.187Z,100296.16
2023-11-08T16:29:49.140Z,100290.91
2023-11-08T16:32:33.359Z,100292.72
2023-11-08T16:34:49.386Z,100286.59
2023-11-08T16:37:17.084Z,100285.75
2023-11-08T16:39:45.391Z,100281.47
2023-11-08T16:42:12.535Z,100284.06
2023-11-08T16:44:40.042Z,100284.13
2023-11-08T16:47:07.055Z,100272.84
2023-11-08T16:49:34.359Z,100277.19
2023-11-08T16:52:01.572Z,100279.84
2023-11-08T16:54:28.706Z,100272.06
2023-11-08T16:56:55.773Z,100273.84
2023-11-08T16:59:22.751Z,100279.97
2023-11-08T17:01:49.719Z,100286.09
2023-11-08T17:04:17.155Z,100281.75
2023-11-08T17:06:49.992Z,100279.16
2023-11-08T17:09:19.143Z,100274.00
2023-11-08T17:11:45.945Z,100278.41
2023-11-08T17:14:12.790Z,100294.94
2023-11-08T17:16:39.816Z,100279.31
2023-11-08T17:19:06.648Z,100270.59
2023-11-08T17:21:34.149Z,100269.78
2023-11-08T17:24:02.800Z,100267.16
2023-11-08T17:26:29.587Z,100267.16
2023-11-08T17:28:56.996Z,100264.63
2023-11-08T17:31:23.817Z,100260.28
2023-11-08T17:33:50.714Z,100257.66
2023-11-08T17:36:17.566Z,100248.13
2023-11-08T17:38:46.529Z,100248.13
2023-11-08T17:41:13.879Z,100249.88
2023-11-08T17:43:42.211Z,100237.75
2023-11-08T17:46:10.226Z,100237.72
2023-11-08T17:48:37.990Z,100237.75
2023-11-08T17:51:06.107Z,100235.16
2023-11-08T17:53:34.450Z,100241.19
2023-11-08T17:56:01.619Z,100239.47
2023-11-08T17:58:28.530Z,100237.75
2023-11-08T18:00:56.550Z,100230.78
2023-11-08T18:03:23.668Z,100232.53
2023-11-08T18:05:51.274Z,100229.94
2023-11-08T18:08:18.116Z,100229.91
2023-11-08T18:10:44.824Z,100223.84
2023-11-08T18:13:11.593Z,100225.56
2023-11-08T18:15:39.465Z,100222.97
2023-11-08T18:18:07.266Z,100222.97
2023-11-08T18:20:34.250Z,100229.06
2023-11-08T18:23:01.103Z,100219.53
2023-11-08T18:25:27.856Z,100222.97
2023-11-08T18:27:54.609Z,100209.94
2023-11-08T18:30:25.480Z,100203.00
2023-11-08T18:32:52.438Z,100197.78
2023-11-08T18:35:19.335Z,100198.69
2023-11-08T18:37:47.646Z,100197.78
2023-11-08T18:40:14.734Z,100201.25
2023-11-08T18:42:41.740Z,100201.25
2023-11-08T18:45:10.083Z,100190.84
2023-11-08T18:47:37.186Z,100193.47
2023-11-08T18:50:07.595Z,100187.34
2023-11-08T18:52:34.682Z,100189.09
2023-11-08T18:55:02.310Z,100177.78
2023-11-08T18:57:29.444Z,100178.69
2023-11-08T18:59:56.725Z,100174.31
2023-11-08T19:02:25.255Z,100164.78
2023-11-08T19:04:52.130Z,100163.91
2023-11-08T19:07:20.618Z,100165.63
2023-11-08T19:09:47.633Z,100167.38
2023-11-08T19:12:14.502Z,100163.03
2023-11-08T19:14:41.664Z,100161.31
2023-11-08T19:17:08.503Z,100162.16
2023-11-08T19:19:35.404Z,100150.03
2023-11-08T19:22:02.379Z,100154.34
2023-11-08T19:24:29.307Z,100143.09
2023-11-08T19:26:56.062Z,100159.56
2023-11-08T19:29:22.810Z,100157.81
2023-11-08T19:31:51.139Z,100163.03
2023-11-08T19:34:18.383Z,100166.50
2023-11-08T19:36:49.505Z,100160.41
2023-11-08T19:39:17.148Z,100164.75
2023-11-08T19:41:44.609Z,100163.88
2023-11-08T19:44:11.418Z,100163.88
2023-11-08T19:46:38.194Z,100166.47
2023-11-08T19:49:06.453Z,100163.00
2023-11-08T19:51:35.191Z,100162.13
2023-11-08T19:54:02.178Z,100168.22
2023-11-08T19:56:29.140Z,100160.41
2023-11-08T19:58:55.861Z,100156.06
2023-11-08T20:01:23.389Z,100156.91
2023-11-08T20:03:51.726Z,100157.78
2023-11-08T20:06:18.632Z,100149.06
2023-11-08T20:08:46.963Z,100147.31
2023-11-08T20:11:15.146Z,100139.50
2023-11-08T20:13:43.169Z,100133.44
2023-11-08T20:16:11.208Z,100133.38
2023-11-08T20:18:38.302Z,100125.41
2023-11-08T20:21:10.605Z,100120.31
2023-11-08T20:23:38.258Z,100106.47
2023-11-08T20:26:05.138Z,100116.94
2023-11-08T20:28:32.217Z,100120.31
2023-11-08T20:31:02.953Z,100116.00
2023-11-08T20:33:31.164Z,100110.81
2023-11-08T20:36:01.246Z,100103.88
2023-11-08T20:38:29.449Z,100092.63
2023-11-08T20:40:56.548Z,100101.19
2023-11-08T20:43:23.874Z,100092.63
2023-11-08T20:45:50.945Z,100097.81
2023-11-08T20:48:17.785Z,100089.94
2023-11-08T20:50:44.618Z,100091.69
2023-11-08T20:53:11.821Z,100090.78
2023-11-08T20:55:39.283Z,100093.38
2023-11-08T20:58:07.066Z,100092.53
2023-11-08T21:00:34.019Z,100083.06
2023-11-08T21:03:01.927Z,100071.75
2023-11-08T21:05:28.768Z,100062.22
2023-11-08T21:07:55.938Z,100067.38
2023-11-08T21:10:23.000Z,100054.34
2023-11-08T21:12:49.939Z,100054.31
2023-11-08T21:15:16.769Z,100050.88
2023-11-08T21:17:43.579Z,100051.63
2023-11-08T21:20:10.809Z,100058.47
2023-11-08T21:22:38.172Z,100055.16
2023-11-08T21:25:06.279Z,100052.50
2023-11-08T21:27:33.101Z,100053.38
2023-11-08T21:30:00.324Z,100048.09
2023-11-08T21:32:27.266Z,100049.84
2023-11-08T21:34:57.857Z,100043.75
2023-11-08T21:37:25.529Z,100041.19
2023-11-08T21:39:53.585Z,100048.06
2023-11-08T21:42:20.495Z,100042.06
2023-11-08T21:44:47.236Z,100042.88
2023-11-08T21:47:15.669Z,100040.28
2023-11-08T21:49:42.455Z,100048.97
2023-11-08T21:52:09.320Z,100048.91
2023-11-08T21:54:38.788Z,100046.38
2023-11-08T21:57:10.977Z,100040.28
2023-11-08T21:59:38.295Z,100032.50
2023-11-08T22:02:08.135Z,100030.00
2023-11-08T22:04:35.768Z,100025.53
2023-11-08T22:07:03.169Z,100024.63
2023-11-08T22:09:30.186Z,100018.53
2023-11-08T22:11:57.257Z,100013.34
2023-11-08T22:14:24.157Z,100012.47
2023-11-08T22:16:50.950Z,100011.69
2023-11-08T22:19:17.779Z,100023.72
2023-11-08T22:21:44.661Z,100016.75
2023-11-08T22:24:11.728Z,100016.78
2023-11-08T22:26:38.570Z,100009.78
2023-11-08T22:29:06.225Z,100018.47
2023-11-08T22:31:33.551Z,100001.19
2023-11-08T22:34:00.358Z,99997.66
2023-11-08T22:36:27.595Z,100005.41
2023-11-08T22:38:54.613Z,100005.28
2023-11-08T22:41:21.756Z,99993.28
2023-11-08T22:43:48.590Z,99993.41
2023-11-08T22:46:22.865Z,99987.34
2023-11-08T22:48:49.868Z,99988.19
2023-11-08T22:51:23.382Z,99983.84
2023-11-08T22:53:50.935Z,99989.97
2023-11-08T22:56:18.414Z,99992.59
2023-11-08T22:58:46.034Z,99981.34
2023-11-08T23:01:12.839Z,99994.25
2023-11-08T23:03:40.193Z,99977.88
2023-11-08T23:06:07.434Z,99975.28
2023-11-08T23:08:34.183Z,99982.22
2023-11-08T23:11:00.958Z,99975.34
2023-11-08T23:13:27.776Z,99968.38
2023-11-08T23:15:54.513Z,99966.66
2023-11-08T23:18:21.321Z,99954.56
2023-11-08T23:20:48.488Z,99953.72
2023-11-08T23:23:15.245Z,99949.41
2023-11-08T23:25:42.322Z,99956.31
2023-11-08T23:28:09.875Z,99942.47
2023-11-08T23:30:36.788Z,99952.00
2023-11-08T23:33:03.735Z,99939.91
2023-11-08T23:35:30.655Z,99939.03
2023-11-08T23:37:57.729Z,99944.22
2023-11-08T23:40:24.620Z,99939.03
2023-11-08T23:42:51.593Z,99938.16
2023-11-08T23:45:18.494Z,99939.03
2023-11-08T23:47:45.372Z,99932.97
2023-11-08T23:50:13.508Z,99933.84
2023-11-08T23:52:40.293Z,99930.38
2023-11-08T23:55:07.542Z,99931.22
2023-11-08T23:57:34.689Z,99930.38
